Time;durP1;ratioP1;P1;durP2;ratioP2;P2;SDS_P1;SDS_P2;PMS_P1;PMS_P2;Temp;Humidity;BMP_temperature;BMP_pressure;BME280_temperature;BME280_humidity;BME280_pressure;Samples;Min_cycle;Max_cycle;Signal;HPM_P1;HPM_P2
2021/08/02 00:01:21;;;;;;;10.43;4.00;;;;;;;16.12;72.48;98605.59;5034207;28;20033;-50
2021/08/02 00:04:06;;;;;;;12.20;10.75;;;;;;;15.98;73.14;98603.22;5049376;28;20427;-50
2021/08/02 00:06:52;;;;;;;6.03;5.43;;;;;;;15.74;73.85;98605.16;5049387;28;20147;-50
2021/08/02 00:09:35;;;;;;;17.58;10.90;;;;;;;15.58;74.15;98603.22;5034046;28;20521;-50
2021/08/02 00:12:05;;;;;;;12.38;9.52;;;;;;;15.60;74.51;98603.78;5033963;28;20033;-50
2021/08/02 00:14:31;;;;;;;15.80;8.57;;;;;;;16.09;74.54;98608.69;5049145;28;20026;-50
2021/08/02 00:16:57;;;;;;;13.18;4.35;;;;;;;16.75;73.11;98603.66;5049283;28;20030;-51
2021/08/02 00:19:23;;;;;;;32.40;29.10;;;;;;;17.25;71.05;98589.53;5033538;28;20038;-50
2021/08/02 00:21:50;;;;;;;14.20;5.90;;;;;;;17.44;69.70;98587.38;5033783;28;20029;-50
2021/08/02 00:24:17;;;;;;;12.80;8.73;;;;;;;17.68;68.98;98585.25;5033737;28;20465;-50
2021/08/02 00:26:44;;;;;;;10.65;6.13;;;;;;;17.74;67.62;98586.13;5033583;28;20033;-51
2021/08/02 00:29:11;;;;;;;43.20;38.92;;;;;;;17.55;67.96;98586.47;5033599;28;20097;-50
2021/08/02 00:31:37;;;;;;;8.52;4.38;;;;;;;17.46;68.03;98587.13;5048825;28;20560;-50
2021/08/02 00:34:04;;;;;;;6.60;3.05;;;;;;;17.41;67.92;98581.78;5033521;28;20029;-50
2021/08/02 00:36:44;;;;;;;17.17;15.43;;;;;;;17.34;67.99;98587.25;5033302;28;20033;-50
2021/08/02 00:39:10;;;;;;;8.75;3.70;;;;;;;17.52;68.55;98586.94;5033452;28;20024;-50
2021/08/02 00:41:47;;;;;;;7.47;4.63;;;;;;;17.98;67.15;98581.34;5033288;28;20021;-50
2021/08/02 00:44:31;;;;;;;9.90;3.65;;;;;;;17.84;66.22;98582.81;5033416;28;20029;-50
2021/08/02 00:47:04;;;;;;;7.30;3.13;;;;;;;17.29;67.05;98582.69;5033318;28;20483;-50
2021/08/02 00:49:30;;;;;;;10.10;5.28;;;;;;;16.78;68.38;98590.75;5048622;28;20060;-50
2021/08/02 00:51:57;;;;;;;7.50;6.10;;;;;;;16.38;69.50;98590.91;5048429;28;20036;-50
2021/08/02 00:54:25;;;;;;;13.82;9.20;;;;;;;15.96;70.94;98591.28;5033108;28;20510;-50
2021/08/02 00:56:58;;;;;;;8.50;4.68;;;;;;;15.61;72.01;98589.50;5033080;28;20486;-50
2021/08/02 00:59:27;;;;;;;14.85;12.85;;;;;;;15.34;72.46;98592.69;5033389;28;20025;-50
2021/08/02 01:01:54;;;;;;;7.57;5.55;;;;;;;15.15;73.14;98594.69;5032951;28;20056;-53
2021/08/02 01:04:20;;;;;;;3.95;3.50;;;;;;;15.00;73.36;98597.00;5048288;28;20017;-53
2021/08/02 01:06:47;;;;;;;8.13;6.97;;;;;;;14.94;73.65;98592.66;5048128;28;20033;-53
2021/08/02 01:09:16;;;;;;;5.05;3.72;;;;;;;14.82;73.86;98592.66;5032851;28;20029;-53
2021/08/02 01:11:43;;;;;;;14.95;11.05;;;;;;;14.74;74.29;98590.34;5032759;28;20553;-53
2021/08/02 01:14:10;;;;;;;45.65;38.10;;;;;;;15.15;74.62;98599.16;5033024;28;20028;-53
2021/08/02 01:16:39;;;;;;;12.13;10.95;;;;;;;15.67;73.24;98591.22;5031282;28;20029;-53
2021/08/02 01:19:10;;;;;;;11.55;4.22;;;;;;;16.02;71.88;98589.50;5032355;28;20120;-53
2021/08/02 01:21:39;;;;;;;16.88;14.93;;;;;;;16.31;70.81;98590.25;5032571;28;20025;-52
2021/08/02 01:24:07;;;;;;;6.72;3.70;;;;;;;16.49;69.78;98587.38;5032544;28;20017;-52
2021/08/02 01:26:45;;;;;;;5.90;4.35;;;;;;;16.06;70.02;98590.66;5032437;28;20021;-53
2021/08/02 01:29:47;;;;;;;30.75;27.70;;;;;;;15.64;71.15;98594.34;5047753;28;20026;-53
2021/08/02 01:32:15;;;;;;;92.40;84.03;;;;;;;15.55;71.60;98595.75;5032395;28;20071;-52
2021/08/02 01:34:41;;;;;;;22.98;20.63;;;;;;;15.51;71.66;98606.00;5047619;28;20115;-52
2021/08/02 01:37:07;;;;;;;9.40;5.70;;;;;;;15.47;72.04;98614.63;5032214;28;20057;-53
2021/08/02 01:39:34;;;;;;;5.93;5.40;;;;;;;15.31;72.29;98610.88;5047627;28;20126;-52
2021/08/02 01:42:00;;;;;;;7.13;6.50;;;;;;;15.18;72.81;98604.78;5030909;28;20140;-52
2021/08/02 01:44:26;;;;;;;10.45;9.43;;;;;;;14.99;73.54;98603.34;5032185;28;20025;-52
2021/08/02 01:47:06;;;;;;;14.63;13.18;;;;;;;14.64;74.66;98604.13;5030863;28;20032;-52
2021/08/02 01:49:40;;;;;;;9.88;6.63;;;;;;;14.35;75.55;98595.22;5047049;28;20025;-52
2021/08/02 01:52:17;;;;;;;9.88;5.93;;;;;;;14.27;76.02;98596.34;5032155;28;20025;-52
2021/08/02 01:54:55;;;;;;;10.82;8.77;;;;;;;14.21;76.64;98596.47;5032115;28;20037;-52
2021/08/02 01:57:29;;;;;;;18.25;14.63;;;;;;;14.23;76.45;98595.19;5032335;28;20243;-53
2021/08/02 02:00:05;;;;;;;13.15;10.80;;;;;;;14.58;76.28;98592.63;5032055;28;20037;-52
2021/08/02 02:02:34;;;;;;;17.52;8.40;;;;;;;15.07;75.15;98592.41;5032014;28;20033;-52
2021/08/02 02:05:05;;;;;;;11.50;7.47;;;;;;;15.30;73.76;98594.22;5030590;28;20022;-52
2021/08/02 02:07:42;;;;;;;8.48;6.03;;;;;;;15.02;73.75;98599.44;5031884;28;20041;-52
2021/08/02 02:10:09;;;;;;;7.60;6.25;;;;;;;14.69;74.21;98596.31;5030579;28;20384;-52
2021/08/02 02:12:35;;;;;;;60.88;55.45;;;;;;;14.54;75.17;98585.38;5031832;28;20021;-52
2021/08/02 02:15:01;;;;;;;13.18;11.82;;;;;;;14.51;75.19;98591.91;5046996;28;20040;-52
2021/08/02 02:17:27;;;;;;;9.45;5.57;;;;;;;14.60;75.73;98591.59;5031744;28;20032;-52
2021/08/02 02:19:56;;;;;;;14.25;12.82;;;;;;;14.76;75.38;98598.84;5046827;28;20050;-53
2021/08/02 02:22:24;;;;;;;37.95;24.48;;;;;;;14.84;75.31;98600.34;5031710;28;20420;-52
2021/08/02 02:24:51;;;;;;;26.27;8.27;;;;;;;14.60;75.17;98599.53;5031774;28;20030;-52
2021/08/02 02:27:17;;;;;;;100.65;20.00;;;;;;;14.33;76.16;98603.38;5031686;28;20030;-52
2021/08/02 02:29:44;;;;;;;95.85;12.02;;;;;;;14.06;77.09;98605.56;5031644;28;20028;-52
2021/08/02 02:32:11;;;;;;;14.60;8.45;;;;;;;13.89;77.44;98607.25;5046944;28;20527;-52
2021/08/02 02:34:37;;;;;;;34.17;10.93;;;;;;;13.81;78.13;98607.56;5031694;28;20151;-53
2021/08/02 02:37:05;;;;;;;17.83;8.40;;;;;;;13.76;78.35;98609.03;5031553;28;20025;-52
2021/08/02 02:39:31;;;;;;;22.38;13.00;;;;;;;13.75;78.65;98609.25;5046954;28;20026;-52
2021/08/02 02:41:59;;;;;;;10.80;7.43;;;;;;;13.74;78.29;98611.09;5031636;28;20502;-52
2021/08/02 02:44:25;;;;;;;66.68;13.57;;;;;;;13.77;78.25;98605.34;5031577;28;20491;-52
2021/08/02 02:46:52;;;;;;;156.98;13.05;;;;;;;13.73;78.20;98609.47;5031507;28;20083;-52
2021/08/02 02:49:18;;;;;;;26.30;20.48;;;;;;;13.79;78.42;98608.56;5046849;28;20095;-52
2021/08/02 02:51:45;;;;;;;15.27;11.00;;;;;;;14.02;78.88;98612.34;5031486;28;20029;-52
2021/08/02 02:54:11;;;;;;;10.57;6.18;;;;;;;14.44;77.90;98608.88;5031518;28;20022;-52
2021/08/02 02:56:37;;;;;;;16.95;14.60;;;;;;;14.56;76.88;98610.53;5046604;28;20026;-52
2021/08/02 02:59:04;;;;;;;50.15;45.15;;;;;;;14.67;76.77;98610.78;5031391;28;20113;-52
2021/08/02 03:01:50;;;;;;;15.90;8.40;;;;;;;15.06;75.83;98611.13;5050052;28;20068;-52
2021/08/02 03:04:20;;;;;;;164.65;10.90;;;;;;;15.00;74.98;98610.22;5035234;28;20026;-52
2021/08/02 03:06:47;;;;;;;87.78;8.70;;;;;;;14.76;75.25;98618.13;5035419;28;20029;-52
2021/08/02 03:09:19;;;;;;;8.75;6.53;;;;;;;14.60;75.28;98629.38;5033829;28;20028;-52
2021/08/02 03:11:47;;;;;;;37.83;34.35;;;;;;;14.50;75.06;98629.91;5035094;28;20036;-52
2021/08/02 03:14:15;;;;;;;13.57;10.20;;;;;;;14.61;74.87;98631.00;5035030;28;20372;-53
2021/08/02 03:16:41;;;;;;;11.93;6.78;;;;;;;14.85;74.58;98634.47;5050192;28;20032;-53
2021/08/02 03:19:07;;;;;;;6.93;4.15;;;;;;;15.13;73.78;98633.78;5034618;28;20045;-52
2021/08/02 03:21:33;;;;;;;13.05;7.65;;;;;;;15.06;72.58;98643.66;5034891;28;20026;-52
2021/08/02 03:24:28;;;;;;;5.47;3.63;;;;;;;14.91;72.71;98636.19;5050224;28;20056;-52
2021/08/02 03:27:02;;;;;;;9.10;7.43;;;;;;;14.64;73.00;98641.09;5034356;28;20034;-52
2021/08/02 03:29:33;;;;;;;7.72;6.82;;;;;;;14.39;73.50;98644.69;5050118;28;20034;-53
2021/08/02 03:32:25;;;;;;;10.70;9.48;;;;;;;14.13;75.07;98648.53;5034802;28;20036;-53
2021/08/02 03:35:02;;;;;;;20.83;14.43;;;;;;;13.93;75.64;98642.72;5031956;28;20407;-53
2021/08/02 03:37:28;;;;;;;9.15;5.15;;;;;;;13.83;75.72;98645.88;5034660;28;20025;-52
2021/08/02 03:39:56;;;;;;;10.07;5.47;;;;;;;13.93;75.67;98640.06;5034534;28;20112;-52
2021/08/02 03:42:23;;;;;;;12.23;7.50;;;;;;;14.15;75.36;98650.94;5034418;28;20017;-53
2021/08/02 03:44:50;;;;;;;14.07;7.95;;;;;;;14.36;75.33;98650.41;5034421;28;20021;-52
2021/08/02 03:47:18;;;;;;;22.27;19.88;;;;;;;14.26;74.55;98654.66;5033081;28;20029;-52
2021/08/02 03:49:44;;;;;;;13.80;8.68;;;;;;;14.30;74.92;98651.31;5033068;28;20065;-52
2021/08/02 03:52:10;;;;;;;21.10;18.73;;;;;;;14.52;74.24;98659.53;5034302;28;20025;-53
2021/08/02 03:54:35;;;;;;;9.77;5.68;;;;;;;14.50;73.29;98664.22;5034260;28;20032;-52
2021/08/02 03:57:02;;;;;;;7.18;6.05;;;;;;;14.22;73.85;98666.69;5049414;28;20048;-52
2021/08/02 03:59:29;;;;;;;9.85;6.82;;;;;;;13.96;74.82;98668.63;5049392;28;20025;-52
2021/08/02 04:01:54;;;;;;;25.15;20.40;;;;;;;13.72;75.48;98675.63;5049427;28;20419;-52
2021/08/02 04:04:20;;;;;;;13.18;8.15;;;;;;;13.49;76.03;98676.28;5049379;28;20062;-52
2021/08/02 04:06:46;;;;;;;18.90;8.65;;;;;;;13.34;76.78;98685.38;5034028;28;20395;-52
2021/08/02 04:09:13;;;;;;;15.68;10.27;;;;;;;13.26;77.43;98687.44;5033952;28;20112;-52
2021/08/02 04:11:40;;;;;;;11.32;7.20;;;;;;;13.16;77.88;98694.03;5033561;28;20096;-52
2021/08/02 04:14:06;;;;;;;12.57;7.78;;;;;;;13.13;78.15;98694.44;5033916;28;20026;-52
2021/08/02 04:16:33;;;;;;;18.48;8.00;;;;;;;13.19;77.69;98693.56;5033757;28;20025;-53
2021/08/02 04:18:59;;;;;;;53.55;47.65;;;;;;;13.56;78.78;98698.09;5033565;28;20092;-52
2021/08/02 04:21:24;;;;;;;7.90;6.40;;;;;;;14.26;77.26;98695.03;5049080;28;20029;-52
2021/08/02 04:23:50;;;;;;;10.70;7.03;;;;;;;14.46;75.33;98694.75;5032477;28;20021;-52
2021/08/02 04:26:16;;;;;;;11.73;10.10;;;;;;;14.22;74.69;98696.50;5033668;28;20022;-52
2021/08/02 04:28:44;;;;;;;15.52;10.32;;;;;;;14.14;75.29;98694.97;5033679;28;20056;-52
2021/08/02 04:31:10;;;;;;;31.55;28.65;;;;;;;14.19;75.10;98704.91;5033573;28;20029;-52
2021/08/02 04:33:37;;;;;;;73.43;66.78;;;;;;;14.36;75.56;98699.78;5033607;28;20035;-53
2021/08/02 04:36:05;;;;;;;16.23;5.55;;;;;;;14.83;74.56;98701.75;5032087;28;20040;-53
2021/08/02 04:38:31;;;;;;;10.90;4.43;;;;;;;15.02;73.35;98702.50;5033508;28;20017;-52
2021/08/02 04:40:57;;;;;;;16.15;6.78;;;;;;;15.00;72.98;98694.78;5032105;28;20026;-52
2021/08/02 04:43:23;;;;;;;14.07;10.57;;;;;;;15.34;72.84;98698.47;5032006;28;20088;-52
2021/08/02 04:45:49;;;;;;;25.80;17.80;;;;;;;15.91;71.81;98697.03;5032004;28;20026;-53
2021/08/02 04:48:15;;;;;;;61.67;55.75;;;;;;;16.27;72.12;98692.41;5048590;28;20475;-52
2021/08/02 04:50:43;;;;;;;44.20;14.75;;;;;;;16.44;71.88;98690.63;5048520;28;20112;-52
2021/08/02 04:53:10;;;;;;;16.10;5.25;;;;;;;16.19;70.77;98696.25;5033093;28;20022;-52
2021/08/02 04:55:36;;;;;;;12.57;5.55;;;;;;;15.90;71.42;98706.03;5033056;28;20032;-52
2021/08/02 04:58:01;;;;;;;27.52;19.10;;;;;;;16.28;71.34;98694.00;5033113;28;20025;-53
2021/08/02 05:00:27;;;;;;;22.52;15.57;;;;;;;16.85;69.64;98691.31;5032953;28;20114;-53
2021/08/02 05:02:53;;;;;;;11.77;6.07;;;;;;;17.09;67.96;98693.81;5033004;28;20021;-53
2021/08/02 05:05:19;;;;;;;8.32;6.55;;;;;;;17.29;66.77;98694.09;5048412;28;20056;-53
2021/08/02 05:07:44;;;;;;;43.58;39.63;;;;;;;17.79;65.00;98695.03;5048157;28;20026;-53
2021/08/02 05:10:11;;;;;;;36.03;32.25;;;;;;;18.66;62.84;98692.50;5033114;28;20029;-52
2021/08/02 05:12:36;;;;;;;11.30;10.20;;;;;;;19.51;60.25;98689.91;5032758;28;20028;-50
2021/08/02 05:15:07;;;;;;;9.35;5.65;;;;;;;20.27;57.66;98683.28;5032732;28;20026;-50
2021/08/02 05:17:33;;;;;;;9.07;7.03;;;;;;;20.65;56.36;98697.25;5048009;28;20029;-50
2021/08/02 05:19:59;;;;;;;10.57;7.40;;;;;;;20.72;56.21;98681.75;5047728;28;20041;-50
2021/08/02 05:22:24;;;;;;;21.35;19.20;;;;;;;21.04;54.97;98672.66;5030756;28;20021;-50
2021/08/02 05:24:50;;;;;;;17.45;8.95;;;;;;;21.37;54.22;98673.13;5047721;28;20626;-50
2021/08/02 05:27:16;;;;;;;9.55;4.68;;;;;;;21.89;52.76;98677.22;5032480;28;20445;-49
2021/08/02 05:29:42;;;;;;;15.15;8.80;;;;;;;22.69;51.00;98677.03;5032526;28;20101;-50
2021/08/02 05:32:07;;;;;;;25.63;23.27;;;;;;;23.48;49.82;98676.03;5047704;28;20021;-50
2021/08/02 05:34:33;;;;;;;10.32;8.38;;;;;;;24.01;49.50;98670.59;5047706;28;20502;-50
2021/08/02 05:36:59;;;;;;;10.23;7.53;;;;;;;24.39;49.03;98678.63;5047508;28;20028;-50
2021/08/02 05:39:25;;;;;;;9.15;6.07;;;;;;;24.90;46.63;98683.19;5047595;28;20034;-50
2021/08/02 05:41:50;;;;;;;12.00;6.40;;;;;;;25.13;44.77;98683.34;5032247;28;20060;-49
2021/08/02 05:44:16;;;;;;;12.13;10.57;;;;;;;25.58;43.31;98680.13;5032143;28;20104;-50
2021/08/02 05:46:43;;;;;;;181.57;148.75;;;;;;;26.16;41.78;98675.97;5032152;28;20376;-50
2021/08/02 05:49:10;;;;;;;47.40;31.67;;;;;;;26.58;41.06;98684.72;5032426;28;20116;-50
2021/08/02 05:51:35;;;;;;;26.42;24.05;;;;;;;27.06;39.32;98684.88;5047465;28;20029;-51
2021/08/02 05:54:01;;;;;;;13.57;9.35;;;;;;;27.20;38.90;98683.97;5047380;28;20377;-50
2021/08/02 05:56:27;;;;;;;12.65;8.50;;;;;;;27.62;38.02;98679.84;5030650;28;20027;-50
2021/08/02 05:58:53;;;;;;;5.53;3.17;;;;;;;27.72;37.85;98684.16;5047327;28;20033;-51
2021/08/02 06:01:19;;;;;;;60.63;46.25;;;;;;;27.92;37.68;98690.13;5031925;28;20028;-50
2021/08/02 06:03:44;;;;;;;21.52;6.35;;;;;;;28.39;36.76;98687.59;5031955;28;20030;-51
2021/08/02 06:06:10;;;;;;;8.20;3.55;;;;;;;28.81;35.66;98690.59;5031904;28;20526;-51
2021/08/02 06:08:39;;;;;;;6.30;3.40;;;;;;;29.07;34.96;98694.03;5031886;28;20025;-51
2021/08/02 06:11:06;;;;;;;9.63;5.78;;;;;;;29.35;34.53;98695.56;5031835;28;20108;-50
2021/08/02 06:13:32;;;;;;;7.78;5.53;;;;;;;29.44;34.24;98699.03;5031862;28;20112;-51
2021/08/02 06:15:58;;;;;;;13.80;4.00;;;;;;;29.08;34.86;98698.31;5031785;28;20022;-51
2021/08/02 06:18:24;;;;;;;9.48;3.75;;;;;;;29.37;34.65;98702.22;5031733;28;20025;-51
2021/08/02 06:20:50;;;;;;;7.45;3.22;;;;;;;30.09;33.40;98693.44;5046875;28;20100;-51
2021/08/02 06:23:15;;;;;;;8.73;4.03;;;;;;;30.82;32.31;98696.44;5047019;28;20037;-51
2021/08/02 06:25:41;;;;;;;14.32;6.28;;;;;;;31.39;31.49;98689.47;5031742;28;20026;-51
2021/08/02 06:28:07;;;;;;;11.38;4.20;;;;;;;31.63;31.07;98704.19;5031656;28;20107;-51
2021/08/02 06:30:33;;;;;;;17.48;9.43;;;;;;;32.04;31.00;98684.13;5031676;28;20044;-50
2021/08/02 06:32:58;;;;;;;7.43;3.30;;;;;;;32.35;30.43;98701.69;5031660;28;20061;-51
2021/08/02 06:35:26;;;;;;;9.73;2.78;;;;;;;32.76;29.91;98699.75;5049973;28;20035;-51
2021/08/02 06:37:52;;;;;;;26.52;10.05;;;;;;;32.89;29.73;98697.75;5035728;28;20492;-51
2021/08/02 06:40:17;;;;;;;15.00;4.63;;;;;;;33.02;29.10;98703.88;5050927;28;20024;-51
2021/08/02 06:42:43;;;;;;;15.43;4.20;;;;;;;33.34;29.13;98704.69;5050918;28;20029;-51
2021/08/02 06:45:10;;;;;;;9.52;4.28;;;;;;;33.48;29.12;98709.69;5035489;28;20028;-51
2021/08/02 06:47:36;;;;;;;26.65;15.80;;;;;;;33.61;28.77;98708.50;5035504;28;20203;-51
2021/08/02 06:50:03;;;;;;;9.48;3.20;;;;;;;33.75;28.72;98707.25;5050819;28;20018;-51
2021/08/02 06:52:29;;;;;;;14.32;7.65;;;;;;;33.85;28.38;98703.97;5035483;28;20032;-51
2021/08/02 06:54:55;;;;;;;11.02;4.00;;;;;;;33.83;28.51;98706.25;5035739;28;20025;-51
2021/08/02 06:57:21;;;;;;;7.88;3.47;;;;;;;34.03;27.65;98705.16;5035237;28;20025;-51
2021/08/02 06:59:47;;;;;;;2.97;2.20;;;;;;;34.25;27.34;98702.91;5035319;28;20089;-51
2021/08/02 07:02:13;;;;;;;13.00;5.72;;;;;;;34.56;26.37;98709.34;5050472;28;20029;-51
2021/08/02 07:04:39;;;;;;;3.97;2.72;;;;;;;35.05;26.36;98705.97;5035185;28;20036;-51
2021/08/02 07:07:05;;;;;;;10.55;2.85;;;;;;;35.38;25.57;98699.16;5033867;28;20032;-51
2021/08/02 07:09:31;;;;;;;5.43;1.92;;;;;;;35.51;25.04;98708.69;5035207;28;20026;-51
2021/08/02 07:11:57;;;;;;;11.93;2.22;;;;;;;35.64;24.71;98700.28;5033752;28;20079;-50
2021/08/02 07:14:23;;;;;;;8.20;2.05;;;;;;;35.75;24.77;98707.50;5035037;28;20029;-51
2021/08/02 07:16:48;;;;;;;8.55;2.30;;;;;;;35.72;24.59;98708.25;5033636;28;20017;-50
2021/08/02 07:19:14;;;;;;;5.63;2.40;;;;;;;35.28;25.45;98710.69;5050001;28;20573;-51
2021/08/02 07:21:40;;;;;;;6.32;2.45;;;;;;;34.31;26.83;98714.28;5034944;28;20430;-51
2021/08/02 07:24:06;;;;;;;6.20;2.30;;;;;;;33.74;27.05;98714.59;5050176;28;20026;-51
2021/08/02 07:26:32;;;;;;;4.28;2.05;;;;;;;33.16;28.10;98727.97;5034827;28;20075;-51
2021/08/02 07:28:58;;;;;;;10.30;3.05;;;;;;;33.09;28.80;98725.84;5034846;28;20033;-51
2021/08/02 07:31:25;;;;;;;4.53;1.92;;;;;;;33.14;29.38;98727.53;5050086;28;20454;-51
2021/08/02 07:33:51;;;;;;;6.03;1.90;;;;;;;33.45;28.18;98729.47;5034782;28;20029;-51
2021/08/02 07:36:17;;;;;;;5.18;1.95;;;;;;;33.63;28.26;98725.25;5034524;28;20029;-49
2021/08/02 07:38:44;;;;;;;11.02;2.33;;;;;;;33.42;28.27;98730.16;5033329;28;20074;-48
2021/08/02 07:41:11;;;;;;;9.45;2.60;;;;;;;33.31;28.79;98729.13;5034563;28;20792;-49
2021/08/02 07:43:37;;;;;;;4.07;1.50;;;;;;;33.63;27.06;98729.94;5033182;28;20399;-50
2021/08/02 07:46:02;;;;;;;5.85;2.20;;;;;;;34.11;27.51;98721.63;5048988;28;20029;-51
2021/08/02 07:48:28;;;;;;;5.85;1.80;;;;;;;34.72;26.65;98720.97;5050071;28;20109;-51
2021/08/02 07:50:54;;;;;;;6.78;2.40;;;;;;;35.17;25.44;98724.13;5034315;28;20075;-52
2021/08/02 07:53:20;;;;;;;4.85;1.60;;;;;;;34.97;25.24;98721.44;5033010;28;20079;-51
2021/08/02 07:55:46;;;;;;;16.48;2.58;;;;;;;34.61;26.08;98722.66;5034502;28;20026;-49
2021/08/02 07:58:12;;;;;;;5.95;1.70;;;;;;;34.69;25.84;98719.00;5034222;28;20021;-49
2021/08/02 08:00:38;;;;;;;5.88;1.88;;;;;;;35.16;25.62;98712.44;5034196;28;20013;-49
2021/08/02 08:03:04;;;;;;;2.97;1.45;;;;;;;35.43;25.06;98723.38;5034124;28;20087;-49
2021/08/02 08:05:29;;;;;;;7.15;1.80;;;;;;;35.31;25.11;98720.84;5034096;28;20025;-49
2021/08/02 08:07:55;;;;;;;7.20;2.10;;;;;;;33.23;27.28;98726.22;5049364;28;20022;-51
2021/08/02 08:10:24;;;;;;;10.00;3.00;;;;;;;33.39;27.44;98730.88;5032696;28;20041;-49
2021/08/02 08:12:51;;;;;;;4.25;1.50;;;;;;;34.11;26.51;98729.78;5034018;28;20398;-50
2021/08/02 08:15:19;;;;;;;7.55;1.95;;;;;;;34.50;26.65;98727.91;5034445;28;20398;-51
2021/08/02 08:17:45;;;;;;;8.07;2.20;;;;;;;34.86;25.66;98722.41;5033846;28;20037;-51
2021/08/02 08:20:13;;;;;;;4.28;1.40;;;;;;;35.40;25.08;98729.59;5033632;28;20037;-51
2021/08/02 08:22:40;;;;;;;6.20;2.33;;;;;;;35.61;25.02;98723.66;5032493;28;20032;-51
2021/08/02 08:25:07;;;;;;;2.78;1.50;;;;;;;35.76;24.59;98717.28;5049039;28;20033;-51
2021/08/02 08:27:33;;;;;;;5.35;1.38;;;;;;;35.66;24.92;98728.84;5033687;28;20027;-51
2021/08/02 08:29:59;;;;;;;8.68;3.92;;;;;;;36.06;24.59;98723.91;5033666;28;20100;-51
2021/08/02 08:32:25;;;;;;;6.65;2.72;;;;;;;36.42;23.69;98730.66;5033592;28;20365;-51
2021/08/02 08:34:51;;;;;;;5.00;1.42;;;;;;;37.13;22.76;98727.16;5033576;28;20459;-51
2021/08/02 08:37:19;;;;;;;16.40;3.40;;;;;;;37.55;22.38;98728.63;5033446;28;20021;-51
2021/08/02 08:39:45;;;;;;;9.50;4.35;;;;;;;38.06;22.10;98722.38;5033541;28;20021;-51
2021/08/02 08:42:13;;;;;;;19.75;3.25;;;;;;;38.60;21.79;98727.28;5033388;28;20083;-51
2021/08/02 08:44:39;;;;;;;6.32;1.30;;;;;;;38.88;21.13;98732.06;5033375;28;20086;-50
2021/08/02 08:47:05;;;;;;;4.25;1.30;;;;;;;39.12;20.57;98731.34;5033319;28;20104;-51
2021/08/02 08:49:31;;;;;;;7.95;1.38;;;;;;;39.43;20.07;98726.25;5033356;28;20025;-51
2021/08/02 08:51:57;;;;;;;6.97;1.33;;;;;;;39.82;19.60;98727.34;5031879;28;20030;-51
2021/08/02 08:54:23;;;;;;;4.30;1.27;;;;;;;39.49;19.49;98721.94;5048453;28;20060;-50
2021/08/02 08:56:49;;;;;;;2.20;1.10;;;;;;;39.71;19.27;98719.94;5032842;28;20067;-51
2021/08/02 08:59:16;;;;;;;4.90;1.20;;;;;;;40.39;18.82;98718.16;5032477;28;20108;-52
2021/08/02 09:01:42;;;;;;;3.30;1.20;;;;;;;40.99;18.27;98730.03;5033281;28;20030;-50
2021/08/02 09:04:08;;;;;;;5.55;1.10;;;;;;;40.06;18.90;98725.75;5033007;28;20030;-51
2021/08/02 09:06:57;;;;;;;5.05;1.30;;;;;;;39.69;19.34;98724.25;5033202;28;20104;-51
2021/08/02 09:09:35;;;;;;;7.50;1.48;;;;;;;40.59;18.75;98726.72;5032946;28;20021;-50
2021/08/02 09:12:19;;;;;;;3.45;1.13;;;;;;;41.11;18.22;98724.81;5032881;28;20127;-51
2021/08/02 09:14:52;;;;;;;7.13;1.20;;;;;;;40.89;18.10;98726.16;5032891;28;20395;-51
2021/08/02 09:17:32;;;;;;;3.50;1.25;;;;;;;41.23;17.81;98728.28;5032658;28;20087;-51
2021/08/02 09:19:59;;;;;;;5.07;1.17;;;;;;;41.68;17.10;98731.84;5032426;28;20465;-51
2021/08/02 09:22:30;;;;;;;4.32;1.23;;;;;;;41.98;16.87;98732.28;5031307;28;20021;-50
2021/08/02 09:25:08;;;;;;;9.50;2.15;;;;;;;41.31;17.61;98732.53;5031312;28;20034;-51
2021/08/02 09:27:35;;;;;;;9.57;1.67;;;;;;;41.12;17.79;98729.13;5032518;28;20041;-51
2021/08/02 09:30:21;;;;;;;8.40;1.60;;;;;;;40.83;18.30;98734.06;5047816;28;20026;-51
2021/08/02 09:33:17;;;;;;;10.95;6.50;;;;;;;41.02;18.15;98726.47;5047748;28;20087;-51
2021/08/02 09:35:47;;;;;;;2.63;1.10;;;;;;;41.00;17.87;98724.13;5030748;28;20132;-50
2021/08/02 09:38:15;;;;;;;3.80;1.10;;;;;;;41.00;17.57;98731.59;5032406;28;20052;-51
2021/08/02 09:40:47;;;;;;;6.15;1.00;;;;;;;41.13;17.12;98730.72;5032315;28;20021;-51
2021/08/02 09:43:33;;;;;;;3.13;1.70;;;;;;;41.00;16.99;98729.63;5032351;28;20021;-51
2021/08/02 09:46:02;;;;;;;3.88;2.13;;;;;;;40.25;17.86;98733.53;5032251;28;20048;-51
2021/08/02 09:48:42;;;;;;;5.88;3.17;;;;;;;40.40;18.10;98728.00;5032214;28;20029;-52
2021/08/02 09:51:13;;;;;;;11.25;1.50;;;;;;;40.57;17.70;98735.38;5047487;28;20407;-51
2021/08/02 09:53:42;;;;;;;9.05;3.95;;;;;;;40.18;17.96;98721.78;5032143;28;20100;-51
2021/08/02 09:56:11;;;;;;;4.75;1.20;;;;;;;39.75;18.25;98730.91;5032314;28;20025;-51
2021/08/02 09:58:40;;;;;;;12.77;8.60;;;;;;;39.70;18.60;98723.88;5032077;28;20127;-51
2021/08/02 10:01:06;;;;;;;3.47;0.88;;;;;;;39.67;17.75;98730.16;5030685;28;20036;-51
2021/08/02 10:03:34;;;;;;;1.70;1.05;;;;;;;39.90;17.90;98720.69;5032028;28;20553;-50
2021/08/02 10:06:01;;;;;;;3.40;1.77;;;;;;;39.99;17.73;98726.56;5031954;28;20395;-51
2021/08/02 10:08:28;;;;;;;4.60;0.95;;;;;;;39.79;17.51;98728.16;5046976;28;20155;-50
2021/08/02 10:10:54;;;;;;;3.58;0.95;;;;;;;39.79;17.26;98717.94;5031802;28;20491;-51
2021/08/02 10:13:26;;;;;;;6.45;1.00;;;;;;;39.88;16.96;98723.81;5047145;28;20025;-51
2021/08/02 10:15:58;;;;;;;7.13;2.33;;;;;;;39.96;17.16;98723.81;5030427;28;20029;-52
2021/08/02 10:18:26;;;;;;;1.95;1.15;;;;;;;39.37;17.81;98716.81;5031806;28;20100;-51
2021/08/02 10:21:08;;;;;;;8.02;1.40;;;;;;;39.20;17.02;98723.88;5031637;28;20091;-52
2021/08/02 10:23:35;;;;;;;3.97;1.17;;;;;;;39.59;16.85;98716.81;5031877;28;20472;-51
2021/08/02 10:26:01;;;;;;;5.80;1.30;;;;;;;39.90;17.31;98718.72;5047042;28;20025;-51
2021/08/02 10:28:27;;;;;;;2.97;1.10;;;;;;;39.46;17.05;98710.94;5031735;28;20092;-51
2021/08/02 10:31:05;;;;;;;5.78;1.30;;;;;;;38.87;17.98;98711.28;5031707;28;20025;-51
2021/08/02 10:33:33;;;;;;;3.63;1.77;;;;;;;37.49;19.01;98725.50;5031719;28;20026;-51
2021/08/02 10:36:11;;;;;;;6.15;1.10;;;;;;;36.89;19.26;98717.53;5046803;28;20048;-51
2021/08/02 10:38:43;;;;;;;8.35;1.30;;;;;;;37.04;19.89;98707.50;5046947;28;20127;-51
2021/08/02 10:41:09;;;;;;;5.55;1.00;;;;;;;37.11;19.39;98711.13;5031657;28;20124;-51
2021/08/02 10:43:38;;;;;;;12.50;2.70;;;;;;;37.12;19.81;98712.66;5030255;28;20403;-51
2021/08/02 10:46:20;;;;;;;3.67;1.08;;;;;;;37.63;19.36;98710.34;5031578;28;20499;-51
2021/08/02 10:48:47;;;;;;;3.40;0.93;;;;;;;38.27;18.62;98713.44;5031519;28;20065;-51
2021/08/02 10:51:21;;;;;;;5.13;1.23;;;;;;;38.14;18.99;98702.03;5046831;28;20025;-51
2021/08/02 10:54:02;;;;;;;10.38;2.50;;;;;;;38.11;19.12;98702.03;5030181;28;20033;-51
2021/08/02 10:56:29;;;;;;;6.00;1.20;;;;;;;38.06;19.15;98707.88;5030125;28;20034;-51
2021/08/02 10:58:59;;;;;;;6.07;3.97;;;;;;;37.78;19.18;98709.25;5031382;28;20018;-50
2021/08/02 11:01:27;;;;;;;10.65;1.70;;;;;;;37.45;19.66;98702.78;5031363;28;20029;-51
2021/08/02 11:03:55;;;;;;;3.10;0.80;;;;;;;37.27;20.18;98702.66;5031401;28;20092;-52
2021/08/02 11:06:21;;;;;;;5.32;1.40;;;;;;;36.85;19.87;98701.06;5046665;28;20029;-51
2021/08/02 11:08:52;;;;;;;5.50;1.42;;;;;;;35.22;21.66;98704.72;5030077;28;20574;-51
2021/08/02 11:11:29;;;;;;;9.75;3.75;;;;;;;33.95;23.80;98713.53;5031313;28;20017;-51
2021/08/02 11:14:11;;;;;;;4.45;1.00;;;;;;;34.07;24.37;98710.69;5030019;28;20029;-51
2021/08/02 11:16:47;;;;;;;4.57;1.30;;;;;;;35.09;22.74;98704.09;5031270;28;20022;-49
2021/08/02 11:19:29;;;;;;;5.68;1.17;;;;;;;35.75;21.41;98699.31;5031020;28;20053;-51
2021/08/02 11:22:06;;;;;;;5.10;2.83;;;;;;;35.77;21.82;98696.22;5048634;28;20407;-52
2021/08/02 11:24:34;;;;;;;4.20;1.10;;;;;;;36.03;21.64;98700.88;5034980;28;20049;-51
2021/08/02 11:27:03;;;;;;;1.55;0.82;;;;;;;36.03;21.34;98706.34;5034852;28;20079;-51
2021/08/02 11:29:36;;;;;;;6.10;1.52;;;;;;;36.09;21.33;98696.66;5034854;28;20026;-51
2021/08/02 11:32:12;;;;;;;9.00;3.03;;;;;;;36.21;21.33;98690.19;5035022;28;20510;-51
2021/08/02 11:34:41;;;;;;;4.68;1.13;;;;;;;36.55;21.21;98696.44;5050039;28;20021;-51